sensor_id;sensor_type;location;lat;lon;timestamp;pressure;altitude;pressure_sealevel;temperature;humidity
41260;BME280;26993;48.958;9.330;2022-11-20T00:00:07;98005.72;;;3.40;100.00
41260;BME280;26993;48.958;9.330;2022-11-20T00:02:54;97998.66;;;3.24;100.00
41260;BME280;26993;48.958;9.330;2022-11-20T00:05:42;98008.13;;;3.31;100.00
41260;BME280;26993;48.958;9.330;2022-11-20T00:08:29;98005.09;;;3.51;100.00
41260;BME280;26993;48.958;9.330;2022-11-20T00:11:17;98002.44;;;3.44;100.00
41260;BME280;26993;48.958;9.330;2022-11-20T00:14:04;98003.97;;;3.36;100.00
41260;BME280;26993;48.958;9.330;2022-11-20T00:16:50;98011.94;;;3.53;100.00
41260;BME280;26993;48.958;9.330;2022-11-20T00:19:37;98012.84;;;3.55;100.00
41260;BME280;26993;48.958;9.330;2022-11-20T00:22:25;98005.28;;;3.60;100.00
41260;BME280;26993;48.958;9.330;2022-11-20T00:25:12;97997.13;;;3.78;100.00
41260;BME280;26993;48.958;9.330;2022-11-20T00:27:58;98000.19;;;3.60;100.00
41260;BME280;26993;48.958;9.330;2022-11-20T00:30:45;97995.94;;;3.60;100.00
41260;BME280;26993;48.958;9.330;2022-11-20T00:33:32;97997.78;;;3.69;100.00
41260;BME280;26993;48.958;9.330;2022-11-20T00:36:20;97998.25;;;3.95;100.00
41260;BME280;26993;48.958;9.330;2022-11-20T00:39:09;97996.59;;;3.97;100.00
41260;BME280;26993;48.958;9.330;2022-11-20T00:41:56;98003.44;;;4.00;100.00
41260;BME280;26993;48.958;9.330;2022-11-20T00:44:42;97992.66;;;4.17;100.00
41260;BME280;26993;48.958;9.330;2022-11-20T00:47:29;97999.47;;;4.16;100.00
41260;BME280;26993;48.958;9.330;2022-11-20T00:50:16;97995.13;;;4.10;100.00
41260;BME280;26993;48.958;9.330;2022-11-20T00:53:02;98002.94;;;4.21;100.00
41260;BME280;26993;48.958;9.330;2022-11-20T00:55:54;97998.69;;;4.20;100.00
41260;BME280;26993;48.958;9.330;2022-11-20T00:58:43;97998.56;;;4.12;100.00
41260;BME280;26993;48.958;9.330;2022-11-20T01:01:30;97998.41;;;4.03;100.00
41260;BME280;26993;48.958;9.330;2022-11-20T01:04:17;98001.88;;;4.08;100.00
41260;BME280;26993;48.958;9.330;2022-11-20T01:07:04;97997.78;;;4.17;100.00
41260;BME280;26993;48.958;9.330;2022-11-20T01:09:50;98004.59;;;4.18;100.00
41260;BME280;26993;48.958;9.330;2022-11-20T01:12:38;98006.31;;;4.20;100.00
41260;BME280;26993;48.958;9.330;2022-11-20T01:15:25;98001.28;;;4.23;100.00
41260;BME280;26993;48.958;9.330;2022-11-20T01:18:12;98001.31;;;4.26;100.00
41260;BME280;26993;48.958;9.330;2022-11-20T01:21:01;98004.69;;;4.25;100.00
41260;BME280;26993;48.958;9.330;2022-11-20T01:23:48;98011.66;;;4.34;100.00
41260;BME280;26993;48.958;9.330;2022-11-20T01:26:37;98015.94;;;4.35;100.00
41260;BME280;26993;48.958;9.330;2022-11-20T01:29:26;98019.31;;;4.34;100.00
41260;BME280;26993;48.958;9.330;2022-11-20T01:32:12;98019.41;;;4.42;100.00
41260;BME280;26993;48.958;9.330;2022-11-20T01:34:59;98021.06;;;4.37;100.00
41260;BME280;26993;48.958;9.330;2022-11-20T01:37:45;98016.69;;;4.29;100.00
41260;BME280;26993;48.958;9.330;2022-11-20T01:40:32;98020.06;;;4.27;100.00
41260;BME280;26993;48.958;9.330;2022-11-20T01:43:19;98010.84;;;4.37;100.00
41260;BME280;26993;48.958;9.330;2022-11-20T01:46:15;98003.28;;;4.41;100.00
41260;BME280;26993;48.958;9.330;2022-11-20T01:49:05;98009.94;;;4.32;100.00
41260;BME280;26993;48.958;9.330;2022-11-20T01:51:56;98013.44;;;4.40;100.00
41260;BME280;26993;48.958;9.330;2022-11-20T01:54:48;98003.28;;;4.41;100.00
41260;BME280;26993;48.958;9.330;2022-11-20T01:57:38;98004.03;;;4.36;100.00
41260;BME280;26993;48.958;9.330;2022-11-20T02:00:26;97997.19;;;4.32;100.00
41260;BME280;26993;48.958;9.330;2022-11-20T02:03:16;98002.88;;;4.17;100.00
41260;BME280;26993;48.958;9.330;2022-11-20T02:06:10;97996.06;;;4.17;100.00
41260;BME280;26993;48.958;9.330;2022-11-20T02:08:58;97994.41;;;4.18;100.00
41260;BME280;26993;48.958;9.330;2022-11-20T02:11:45;98004.75;;;4.27;100.00
41260;BME280;26993;48.958;9.330;2022-11-20T02:14:32;98004.41;;;4.07;100.00
41260;BME280;26993;48.958;9.330;2022-11-20T02:17:18;98006.09;;;4.06;100.00
41260;BME280;26993;48.958;9.330;2022-11-20T02:20:07;97991.78;;;4.15;100.00
41260;BME280;26993;48.958;9.330;2022-11-20T02:22:57;97996.16;;;4.22;100.00
41260;BME280;26993;48.958;9.330;2022-11-20T02:25:47;98008.75;;;4.12;100.00
41260;BME280;26993;48.958;9.330;2022-11-20T02:28:36;98001.16;;;4.16;100.00
41260;BME280;26993;48.958;9.330;2022-11-20T02:31:23;98008.06;;;4.23;100.00
41260;BME280;26993;48.958;9.330;2022-11-20T02:34:09;98002.22;;;4.28;100.00
41260;BME280;26993;48.958;9.330;2022-11-20T02:36:56;98003.19;;;4.35;100.00
41260;BME280;26993;48.958;9.330;2022-11-20T02:39:46;97999.84;;;4.41;100.00
41260;BME280;26993;48.958;9.330;2022-11-20T02:42:35;98002.38;;;4.39;100.00
41260;BME280;26993;48.958;9.330;2022-11-20T02:45:22;98000.75;;;4.44;100.00
41260;BME280;26993;48.958;9.330;2022-11-20T02:48:09;98002.63;;;4.56;100.00
41260;BME280;26993;48.958;9.330;2022-11-20T02:50:56;97997.47;;;4.52;100.00
41260;BME280;26993;48.958;9.330;2022-11-20T02:53:42;97991.59;;;4.56;100.00
41260;BME280;26993;48.958;9.330;2022-11-20T02:56:30;97983.19;;;4.65;100.00
41260;BME280;26993;48.958;9.330;2022-11-20T02:59:18;97986.63;;;4.67;100.00
41260;BME280;26993;48.958;9.330;2022-11-20T03:02:04;97990.00;;;4.64;100.00
41260;BME280;26993;48.958;9.330;2022-11-20T03:04:51;97993.53;;;4.74;100.00
41260;BME280;26993;48.958;9.330;2022-11-20T03:07:38;97989.19;;;4.67;100.00
41260;BME280;26993;48.958;9.330;2022-11-20T03:10:24;97989.13;;;4.62;100.00
41260;BME280;26993;48.958;9.330;2022-11-20T03:13:11;97984.88;;;4.63;100.00
41260;BME280;26993;48.958;9.330;2022-11-20T03:16:05;97986.63;;;4.65;100.00
41260;BME280;26993;48.958;9.330;2022-11-20T03:18:52;97991.78;;;4.70;100.00
41260;BME280;26993;48.958;9.330;2022-11-20T03:21:39;97982.38;;;4.66;100.00
41260;BME280;26993;48.958;9.330;2022-11-20T03:24:26;97978.09;;;4.66;100.00
41260;BME280;26993;48.958;9.330;2022-11-20T03:27:13;97978.97;;;4.67;100.00
41260;BME280;26993;48.958;9.330;2022-11-20T03:29:59;97972.16;;;4.66;100.00
41260;BME280;26993;48.958;9.330;2022-11-20T03:32:47;97973.81;;;4.64;100.00
41260;BME280;26993;48.958;9.330;2022-11-20T03:35:34;97969.75;;;4.75;100.00
41260;BME280;26993;48.958;9.330;2022-11-20T03:38:21;97977.47;;;4.80;100.00
41260;BME280;26993;48.958;9.330;2022-11-20T03:41:09;97979.22;;;4.84;100.00
41260;BME280;26993;48.958;9.330;2022-11-20T03:43:59;97979.31;;;4.91;100.00
41260;BME280;26993;48.958;9.330;2022-11-20T03:46:45;97969.00;;;4.85;100.00
41260;BME280;26993;48.958;9.330;2022-11-20T03:49:33;97965.81;;;4.99;100.00
41260;BME280;26993;48.958;9.330;2022-11-20T03:52:20;97965.78;;;4.97;100.00
41260;BME280;26993;48.958;9.330;2022-11-20T03:55:08;97965.50;;;4.77;100.00
41260;BME280;26993;48.958;9.330;2022-11-20T03:57:54;97972.31;;;4.78;100.00
41260;BME280;26993;48.958;9.330;2022-11-20T04:00:41;97968.78;;;4.68;100.00
41260;BME280;26993;48.958;9.330;2022-11-20T04:03:28;97972.22;;;4.70;100.00
41260;BME280;26993;48.958;9.330;2022-11-20T04:06:18;97966.28;;;4.71;100.00
41260;BME280;26993;48.958;9.330;2022-11-20T04:09:05;97967.22;;;4.78;100.00
41260;BME280;26993;48.958;9.330;2022-11-20T04:11:52;97972.25;;;4.72;100.00
41260;BME280;26993;48.958;9.330;2022-11-20T04:14:39;97962.91;;;4.72;100.00
41260;BME280;26993;48.958;9.330;2022-11-20T04:17:26;97967.19;;;4.75;100.00
41260;BME280;26993;48.958;9.330;2022-11-20T04:20:12;97956.94;;;4.72;100.00
41260;BME280;26993;48.958;9.330;2022-11-20T04:23:01;97964.72;;;4.80;100.00
41260;BME280;26993;48.958;9.330;2022-11-20T04:25:47;97969.06;;;4.88;100.00
41260;BME280;26993;48.958;9.330;2022-11-20T04:28:35;97974.13;;;4.84;100.00
41260;BME280;26993;48.958;9.330;2022-11-20T04:31:23;97969.09;;;4.90;100.00
41260;BME280;26993;48.958;9.330;2022-11-20T04:34:11;97969.91;;;4.86;100.00
41260;BME280;26993;48.958;9.330;2022-11-20T04:36:58;97961.47;;;4.93;100.00
41260;BME280;26993;48.958;9.330;2022-11-20T04:39:46;97964.94;;;4.97;100.00
41260;BME280;26993;48.958;9.330;2022-11-20T04:42:32;97969.22;;;4.99;100.00
41260;BME280;26993;48.958;9.330;2022-11-20T04:45:19;97960.72;;;5.02;100.00
41260;BME280;26993;48.958;9.330;2022-11-20T04:48:06;97959.81;;;4.97;100.00
41260;BME280;26993;48.958;9.330;2022-11-20T04:50:52;97959.06;;;5.04;100.00
41260;BME280;26993;48.958;9.330;2022-11-20T04:53:39;97962.44;;;5.03;100.00
41260;BME280;26993;48.958;9.330;2022-11-20T04:56:28;97963.28;;;5.00;100.00
41260;BME280;26993;48.958;9.330;2022-11-20T04:59:14;97959.84;;;4.98;100.00
41260;BME280;26993;48.958;9.330;2022-11-20T05:02:01;97962.31;;;4.93;100.00
41260;BME280;26993;48.958;9.330;2022-11-20T05:04:47;97961.59;;;5.02;100.00
41260;BME280;26993;48.958;9.330;2022-11-20T05:07:34;97956.41;;;4.96;100.00
41260;BME280;26993;48.958;9.330;2022-11-20T05:10:21;97955.59;;;4.99;100.00
41260;BME280;26993;48.958;9.330;2022-11-20T05:13:09;97954.53;;;4.84;100.00
41260;BME280;26993;48.958;9.330;2022-11-20T05:15:55;97950.59;;;5.08;100.00
41260;BME280;26993;48.958;9.330;2022-11-20T05:18:47;97948.09;;;5.14;100.00
41260;BME280;26993;48.958;9.330;2022-11-20T05:21:34;97954.72;;;4.95;100.00
41260;BME280;26993;48.958;9.330;2022-11-20T05:24:20;97952.16;;;4.95;100.00
41260;BME280;26993;48.958;9.330;2022-11-20T05:27:07;97958.94;;;4.95;100.00
41260;BME280;26993;48.958;9.330;2022-11-20T05:29:55;97959.88;;;5.01;100.00
41260;BME280;26993;48.958;9.330;2022-11-20T05:32:42;97968.38;;;5.00;100.00
41260;BME280;26993;48.958;9.330;2022-11-20T05:35:28;97958.03;;;4.91;100.00
41260;BME280;26993;48.958;9.330;2022-11-20T05:38:16;97967.50;;;5.00;100.00
41260;BME280;26993;48.958;9.330;2022-11-20T05:41:03;97958.16;;;4.99;100.00
41260;BME280;26993;48.958;9.330;2022-11-20T05:43:51;97962.25;;;4.89;100.00
41260;BME280;26993;48.958;9.330;2022-11-20T05:46:39;97957.34;;;5.04;100.00
41260;BME280;26993;48.958;9.330;2022-11-20T05:49:25;97954.72;;;4.98;100.00
41260;BME280;26993;48.958;9.330;2022-11-20T05:52:12;97959.00;;;4.99;100.00
41260;BME280;26993;48.958;9.330;2022-11-20T05:54:59;97959.00;;;5.01;100.00
41260;BME280;26993;48.958;9.330;2022-11-20T05:57:45;97957.19;;;4.90;100.00
41260;BME280;26993;48.958;9.330;2022-11-20T06:00:32;97956.28;;;4.87;100.00
41260;BME280;26993;48.958;9.330;2022-11-20T06:03:20;97958.09;;;4.94;100.00
41260;BME280;26993;48.958;9.330;2022-11-20T06:06:07;97951.00;;;4.74;100.00
41260;BME280;26993;48.958;9.330;2022-11-20T06:08:54;97952.94;;;4.91;100.00
41260;BME280;26993;48.958;9.330;2022-11-20T06:11:41;97947.69;;;4.82;100.00
41260;BME280;26993;48.958;9.330;2022-11-20T06:14:28;97956.31;;;4.91;100.00
41260;BME280;26993;48.958;9.330;2022-11-20T06:17:14;97959.69;;;4.89;100.00
41260;BME280;26993;48.958;9.330;2022-11-20T06:20:03;97953.69;;;4.85;100.00
41260;BME280;26993;48.958;9.330;2022-11-20T06:22:50;97953.69;;;4.84;100.00
41260;BME280;26993;48.958;9.330;2022-11-20T06:25:37;97947.69;;;4.79;100.00
41260;BME280;26993;48.958;9.330;2022-11-20T06:28:24;97945.06;;;4.72;100.00
41260;BME280;26993;48.958;9.330;2022-11-20T06:31:12;97941.63;;;4.73;100.00
41260;BME280;26993;48.958;9.330;2022-11-20T06:33:59;97944.19;;;4.73;100.00
41260;BME280;26993;48.958;9.330;2022-11-20T06:36:47;97949.47;;;4.86;100.00
41260;BME280;26993;48.958;9.330;2022-11-20T06:39:34;97949.47;;;4.86;100.00
41260;BME280;26993;48.958;9.330;2022-11-20T06:42:20;97944.31;;;4.83;100.00
41260;BME280;26993;48.958;9.330;2022-11-20T06:45:08;97953.94;;;5.02;100.00
41260;BME280;26993;48.958;9.330;2022-11-20T06:47:57;97946.22;;;4.99;100.00
41260;BME280;26993;48.958;9.330;2022-11-20T06:50:43;97936.84;;;4.97;100.00
41260;BME280;26993;48.958;9.330;2022-11-20T06:53:32;97941.13;;;4.99;100.00
41260;BME280;26993;48.958;9.330;2022-11-20T06:56:18;97943.75;;;5.07;100.00
41260;BME280;26993;48.958;9.330;2022-11-20T06:59:05;97942.84;;;4.99;100.00
41260;BME280;26993;48.958;9.330;2022-11-20T07:01:52;97942.09;;;5.07;100.00
41260;BME280;26993;48.958;9.330;2022-11-20T07:04:39;97948.88;;;5.07;100.00
41260;BME280;26993;48.958;9.330;2022-11-20T07:07:26;97945.59;;;5.16;100.00
41260;BME280;26993;48.958;9.330;2022-11-20T07:10:14;97956.50;;;5.05;100.00
41260;BME280;26993;48.958;9.330;2022-11-20T07:13:01;97954.06;;;5.13;100.00
41260;BME280;26993;48.958;9.330;2022-11-20T07:15:48;97957.41;;;5.07;100.00
41260;BME280;26993;48.958;9.330;2022-11-20T07:18:34;97964.41;;;5.24;100.00
41260;BME280;26993;48.958;9.330;2022-11-20T07:21:21;97967.97;;;5.38;100.00
41260;BME280;26993;48.958;9.330;2022-11-20T07:24:08;97968.13;;;5.52;100.00
41260;BME280;26993;48.958;9.330;2022-11-20T07:26:56;97974.03;;;5.47;100.00
41260;BME280;26993;48.958;9.330;2022-11-20T07:29:43;97980.19;;;5.66;100.00
41260;BME280;26993;48.958;9.330;2022-11-20T07:32:29;97973.44;;;5.71;100.00
41260;BME280;26993;48.958;9.330;2022-11-20T07:35:16;97976.81;;;5.70;100.00
41260;BME280;26993;48.958;9.330;2022-11-20T07:38:03;97977.59;;;5.61;100.00
41260;BME280;26993;48.958;9.330;2022-11-20T07:40:53;97979.16;;;5.51;100.00
41260;BME280;26993;48.958;9.330;2022-11-20T07:43:41;97985.16;;;5.53;100.00
41260;BME280;26993;48.958;9.330;2022-11-20T07:46:28;97988.50;;;5.46;100.00
41260;BME280;26993;48.958;9.330;2022-11-20T07:49:15;97985.91;;;5.43;100.00
41260;BME280;26993;48.958;9.330;2022-11-20T07:52:01;97980.94;;;5.55;100.00
41260;BME280;26993;48.958;9.330;2022-11-20T07:54:48;97976.59;;;5.47;100.00
41260;BME280;26993;48.958;9.330;2022-11-20T07:57:35;97977.31;;;5.38;100.00
41260;BME280;26993;48.958;9.330;2022-11-20T08:00:23;97974.75;;;5.35;100.00
41260;BME280;26993;48.958;9.330;2022-11-20T08:03:10;97979.03;;;5.37;100.00
41260;BME280;26993;48.958;9.330;2022-11-20T08:05:58;97985.75;;;5.28;100.00
41260;BME280;26993;48.958;9.330;2022-11-20T08:08:45;97983.19;;;5.29;100.00
41260;BME280;26993;48.958;9.330;2022-11-20T08:11:32;97991.03;;;5.46;100.00
41260;BME280;26993;48.958;9.330;2022-11-20T08:14:36;97984.16;;;5.39;100.00
41260;BME280;26993;48.958;9.330;2022-11-20T08:17:24;97989.38;;;5.50;100.00
41260;BME280;26993;48.958;9.330;2022-11-20T08:20:11;97990.34;;;5.60;100.00
41260;BME280;26993;48.958;9.330;2022-11-20T08:22:58;97995.38;;;5.52;100.00
41260;BME280;26993;48.958;9.330;2022-11-20T08:25:49;97982.59;;;5.50;100.00
41260;BME280;26993;48.958;9.330;2022-11-20T08:28:36;97989.44;;;5.56;100.00
41260;BME280;26993;48.958;9.330;2022-11-20T08:31:23;97991.97;;;5.53;100.00
41260;BME280;26993;48.958;9.330;2022-11-20T08:34:11;97992.06;;;5.61;100.00
41260;BME280;26993;48.958;9.330;2022-11-20T08:36:58;98000.81;;;5.83;100.00
41260;BME280;26993;48.958;9.330;2022-11-20T08:39:44;97999.09;;;5.80;100.00
41260;BME280;26993;48.958;9.330;2022-11-20T08:42:32;98004.16;;;5.79;100.00
41260;BME280;26993;48.958;9.330;2022-11-20T08:45:19;98008.44;;;5.81;100.00
41260;BME280;26993;48.958;9.330;2022-11-20T08:48:06;98000.66;;;5.66;100.00
41260;BME280;26993;48.958;9.330;2022-11-20T08:50:57;97999.81;;;5.68;100.00
41260;BME280;26993;48.958;9.330;2022-11-20T08:53:44;97999.88;;;5.73;100.00
41260;BME280;26993;48.958;9.330;2022-11-20T08:56:31;98003.28;;;5.75;100.00
41260;BME280;26993;48.958;9.330;2022-11-20T08:59:18;98009.28;;;5.77;100.00
41260;BME280;26993;48.958;9.330;2022-11-20T09:02:05;98004.22;;;5.82;100.00
41260;BME280;26993;48.958;9.330;2022-11-20T09:04:52;98009.28;;;5.79;100.00
41260;BME280;26993;48.958;9.330;2022-11-20T09:07:40;98015.28;;;5.81;100.00
41260;BME280;26993;48.958;9.330;2022-11-20T09:10:27;98015.31;;;5.84;100.00
41260;BME280;26993;48.958;9.330;2022-11-20T09:13:14;98019.78;;;6.02;100.00
41260;BME280;26993;48.958;9.330;2022-11-20T09:16:02;98019.78;;;6.03;100.00
41260;BME280;26993;48.958;9.330;2022-11-20T09:18:50;98016.34;;;6.01;100.00
41260;BME280;26993;48.958;9.330;2022-11-20T09:21:37;98018.72;;;5.86;100.00
41260;BME280;26993;48.958;9.330;2022-11-20T09:24:25;98015.28;;;5.81;100.00
41260;BME280;26993;48.958;9.330;2022-11-20T09:27:11;98013.59;;;5.84;100.00
41260;BME280;26993;48.958;9.330;2022-11-20T09:29:58;98018.84;;;5.97;100.00
41260;BME280;26993;48.958;9.330;2022-11-20T09:32:45;98025.59;;;5.90;100.00
41260;BME280;26993;48.958;9.330;2022-11-20T09:35:32;98024.84;;;5.99;100.00
41260;BME280;26993;48.958;9.330;2022-11-20T09:38:19;98025.03;;;6.17;100.00
41260;BME280;26993;48.958;9.330;2022-11-20T09:41:23;98035.41;;;6.34;100.00
41260;BME280;26993;48.958;9.330;2022-11-20T09:44:23;98044.63;;;6.18;100.00
41260;BME280;26993;48.958;9.330;2022-11-20T09:47:20;98037.88;;;6.25;100.00
41260;BME280;26993;48.958;9.330;2022-11-20T09:50:21;98030.91;;;6.09;100.00
41260;BME280;26993;48.958;9.330;2022-11-20T09:53:18;98035.09;;;5.99;100.00
41260;BME280;26993;48.958;9.330;2022-11-20T09:56:10;98034.94;;;5.90;100.00
41260;BME280;26993;48.958;9.330;2022-11-20T09:58:59;98035.81;;;5.90;100.00
41260;BME280;26993;48.958;9.330;2022-11-20T10:01:48;98027.22;;;5.83;100.00
41260;BME280;26993;48.958;9.330;2022-11-20T10:04:39;98027.28;;;5.90;100.00
41260;BME280;26993;48.958;9.330;2022-11-20T10:07:34;98024.81;;;5.97;100.00
41260;BME280;26993;48.958;9.330;2022-11-20T10:10:31;98022.38;;;6.07;100.00
41260;BME280;26993;48.958;9.330;2022-11-20T10:13:30;98020.81;;;6.21;100.00
41260;BME280;26993;48.958;9.330;2022-11-20T10:16:24;98014.13;;;6.37;100.00
41260;BME280;26993;48.958;9.330;2022-11-20T10:19:27;98012.44;;;6.39;100.00
41260;BME280;26993;48.958;9.330;2022-11-20T10:22:30;98023.66;;;6.60;100.00
41260;BME280;26993;48.958;9.330;2022-11-20T10:25:24;98023.66;;;6.61;100.00
41260;BME280;26993;48.958;9.330;2022-11-20T10:28:23;98016.91;;;6.70;100.00
41260;BME280;26993;48.958;9.330;2022-11-20T10:31:27;98025.41;;;6.64;100.00
41260;BME280;26993;48.958;9.330;2022-11-20T10:34:20;98005.72;;;6.55;100.00
41260;BME280;26993;48.958;9.330;2022-11-20T10:37:11;98021.13;;;6.61;100.00
41260;BME280;26993;48.958;9.330;2022-11-20T10:40:02;98024.47;;;6.51;100.00
41260;BME280;26993;48.958;9.330;2022-11-20T10:42:55;98022.00;;;6.63;100.00
41260;BME280;26993;48.958;9.330;2022-11-20T10:45:49;98032.22;;;6.62;100.00
41260;BME280;26993;48.958;9.330;2022-11-20T10:48:40;98028.03;;;6.70;100.00
41260;BME280;26993;48.958;9.330;2022-11-20T10:51:35;98026.28;;;6.67;100.00
41260;BME280;26993;48.958;9.330;2022-11-20T10:54:31;98028.78;;;6.63;100.00
41260;BME280;26993;48.958;9.330;2022-11-20T10:57:29;98020.31;;;6.69;100.00
41260;BME280;26993;48.958;9.330;2022-11-20T11:00:18;98022.09;;;6.77;100.00
41260;BME280;26993;48.958;9.330;2022-11-20T11:03:19;98016.97;;;6.82;100.00
41260;BME280;26993;48.958;9.330;2022-11-20T11:06:12;98010.94;;;6.71;100.00
41260;BME280;26993;48.958;9.330;2022-11-20T11:09:08;98014.34;;;6.71;100.00
41260;BME280;26993;48.958;9.330;2022-11-20T11:11:57;98010.06;;;6.69;100.00
41260;BME280;26993;48.958;9.330;2022-11-20T11:14:46;98011.75;;;6.63;100.00
41260;BME280;26993;48.958;9.330;2022-11-20T11:17:33;98003.31;;;6.75;100.00
41260;BME280;26993;48.958;9.330;2022-11-20T11:20:22;98003.34;;;6.80;100.00
41260;BME280;26993;48.958;9.330;2022-11-20T11:23:28;97995.56;;;6.64;100.00
41260;BME280;26993;48.958;9.330;2022-11-20T11:26:19;97996.44;;;6.68;100.00
41260;BME280;26993;48.958;9.330;2022-11-20T11:29:17;97991.28;;;6.65;100.00
41260;BME280;26993;48.958;9.330;2022-11-20T11:32:05;97978.50;;;6.70;100.00
41260;BME280;26993;48.958;9.330;2022-11-20T11:35:00;97983.59;;;6.66;100.00
41260;BME280;26993;48.958;9.330;2022-11-20T11:37:48;97979.41;;;6.78;100.00
41260;BME280;26993;48.958;9.330;2022-11-20T11:40:39;97981.09;;;6.76;100.00
41260;BME280;26993;48.958;9.330;2022-11-20T11:43:28;97974.28;;;6.79;100.00
41260;BME280;26993;48.958;9.330;2022-11-20T11:46:35;97973.47;;;6.87;100.00
41260;BME280;26993;48.958;9.330;2022-11-20T11:49:23;97975.22;;;6.91;100.00
41260;BME280;26993;48.958;9.330;2022-11-20T11:52:13;97968.44;;;7.04;100.00
41260;BME280;26993;48.958;9.330;2022-11-20T11:55:05;97963.38;;;7.18;100.00
41260;BME280;26993;48.958;9.330;2022-11-20T11:58:06;97960.03;;;7.33;100.00
41260;BME280;26993;48.958;9.330;2022-11-20T12:00:58;97957.44;;;7.31;100.00
41260;BME280;26993;48.958;9.330;2022-11-20T12:03:53;97948.91;;;7.27;100.00
41260;BME280;26993;48.958;9.330;2022-11-20T12:06:44;97944.66;;;7.33;100.00
41260;BME280;26993;48.958;9.330;2022-11-20T12:09:41;97943.84;;;7.41;100.00
41260;BME280;26993;48.958;9.330;2022-11-20T12:12:34;97948.13;;;7.53;99.24
41260;BME280;26993;48.958;9.330;2022-11-20T12:15:28;97949.88;;;7.59;97.23
41260;BME280;26993;48.958;9.330;2022-11-20T12:18:17;97943.03;;;7.66;93.78
41260;BME280;26993;48.958;9.330;2022-11-20T12:21:12;97938.75;;;7.75;91.53
41260;BME280;26993;48.958;9.330;2022-11-20T12:24:21;97940.50;;;7.80;90.44
41260;BME280;26993;48.958;9.330;2022-11-20T12:27:39;97937.09;;;7.91;90.59
41260;BME280;26993;48.958;9.330;2022-11-20T12:30:36;97939.63;;;7.82;89.27
41260;BME280;26993;48.958;9.330;2022-11-20T12:33:47;97936.22;;;7.78;87.69
41260;BME280;26993;48.958;9.330;2022-11-20T12:36:43;97936.22;;;7.72;87.87
41260;BME280;26993;48.958;9.330;2022-11-20T12:39:35;97937.06;;;7.70;88.14
41260;BME280;26993;48.958;9.330;2022-11-20T12:42:37;97927.66;;;7.62;88.26
41260;BME280;26993;48.958;9.330;2022-11-20T12:45:54;97940.44;;;7.61;88.61
41260;BME280;26993;48.958;9.330;2022-11-20T12:48:56;97937.91;;;7.64;88.15
41260;BME280;26993;48.958;9.330;2022-11-20T12:51:55;97930.25;;;7.78;87.49
41260;BME280;26993;48.958;9.330;2022-11-20T12:54:58;97934.50;;;7.82;86.64
41260;BME280;26993;48.958;9.330;2022-11-20T12:57:51;97930.25;;;7.90;87.56
41260;BME280;26993;48.958;9.330;2022-11-20T13:00:56;97929.41;;;7.96;85.70
41260;BME280;26993;48.958;9.330;2022-11-20T13:03:51;97924.25;;;7.91;86.64
41260;BME280;26993;48.958;9.330;2022-11-20T13:06:41;97925.97;;;8.02;85.96
41260;BME280;26993;48.958;9.330;2022-11-20T13:09:29;97925.13;;;7.97;84.32
41260;BME280;26993;48.958;9.330;2022-11-20T13:12:23;97927.69;;;8.00;83.84
41260;BME280;26993;48.958;9.330;2022-11-20T13:15:30;97940.50;;;8.01;82.59
41260;BME280;26993;48.958;9.330;2022-11-20T13:18:22;97920.81;;;8.02;82.94
41260;BME280;26993;48.958;9.330;2022-11-20T13:21:18;97925.97;;;8.03;81.99
41260;BME280;26993;48.958;9.330;2022-11-20T13:24:05;97932.81;;;8.06;81.43
41260;BME280;26993;48.958;9.330;2022-11-20T13:27:18;97921.69;;;7.94;80.57
41260;BME280;26993;48.958;9.330;2022-11-20T13:30:13;97923.41;;;8.09;81.19
41260;BME280;26993;48.958;9.330;2022-11-20T13:33:06;97920.81;;;8.06;82.10
41260;BME280;26993;48.958;9.330;2022-11-20T13:35:59;97909.72;;;8.28;81.79
41260;BME280;26993;48.958;9.330;2022-11-20T13:38:49;97902.00;;;8.28;82.62
41260;BME280;26993;48.958;9.330;2022-11-20T13:41:37;97911.41;;;8.27;81.19
41260;BME280;26993;48.958;9.330;2022-11-20T13:44:29;97901.16;;;8.29;80.12
41260;BME280;26993;48.958;9.330;2022-11-20T13:47:21;97900.28;;;8.23;81.64
41260;BME280;26993;48.958;9.330;2022-11-20T13:50:08;97897.69;;;8.39;81.15
41260;BME280;26993;48.958;9.330;2022-11-20T13:52:59;97892.53;;;8.45;79.37
41260;BME280;26993;48.958;9.330;2022-11-20T13:55:54;97901.97;;;8.46;78.78
41260;BME280;26993;48.958;9.330;2022-11-20T13:58:52;97890.88;;;8.47;79.01
41260;BME280;26993;48.958;9.330;2022-11-20T14:01:45;97894.25;;;8.41;77.92
41260;BME280;26993;48.958;9.330;2022-11-20T14:04:36;97895.16;;;8.37;79.07
41260;BME280;26993;48.958;9.330;2022-11-20T14:07:25;97888.31;;;8.32;80.05
41260;BME280;26993;48.958;9.330;2022-11-20T14:10:20;97885.75;;;8.05;79.77
41260;BME280;26993;48.958;9.330;2022-11-20T14:13:18;97881.50;;;7.98;80.02
41260;BME280;26993;48.958;9.330;2022-11-20T14:16:05;97888.34;;;7.87;79.62
41260;BME280;26993;48.958;9.330;2022-11-20T14:18:52;97900.31;;;7.89;79.87
41260;BME280;26993;48.958;9.330;2022-11-20T14:21:38;97900.31;;;7.88;80.59
41260;BME280;26993;48.958;9.330;2022-11-20T14:24:25;97896.06;;;7.85;81.51
41260;BME280;26993;48.958;9.330;2022-11-20T14:27:14;97902.03;;;7.78;81.53
41260;BME280;26993;48.958;9.330;2022-11-20T14:30:03;97910.53;;;7.57;83.43
41260;BME280;26993;48.958;9.330;2022-11-20T14:32:53;97897.72;;;7.51;81.67
41260;BME280;26993;48.958;9.330;2022-11-20T14:35:46;97894.31;;;7.67;79.36
41260;BME280;26993;48.958;9.330;2022-11-20T14:38:33;97896.03;;;7.70;78.76
41260;BME280;26993;48.958;9.330;2022-11-20T14:41:21;97887.50;;;7.66;78.81
41260;BME280;26993;48.958;9.330;2022-11-20T14:44:08;97890.91;;;7.65;78.44
41260;BME280;26993;48.958;9.330;2022-11-20T14:46:59;97893.47;;;7.59;79.29
41260;BME280;26993;48.958;9.330;2022-11-20T14:49:47;97885.75;;;7.51;79.91
41260;BME280;26993;48.958;9.330;2022-11-20T14:52:34;97877.22;;;7.61;79.85
41260;BME280;26993;48.958;9.330;2022-11-20T14:55:31;97876.34;;;7.47;80.40
41260;BME280;26993;48.958;9.330;2022-11-20T14:58:21;97870.38;;;7.45;80.39
41260;BME280;26993;48.958;9.330;2022-11-20T15:01:12;97864.38;;;7.29;81.22